createdAt,value
2022-10-19T00:03:06.746Z,10.04
2022-10-19T00:08:09.530Z,10.02
2022-10-19T00:13:12.185Z,10.04
2022-10-19T00:18:14.877Z,10.07
2022-10-19T00:23:17.618Z,10.12
2022-10-19T00:28:20.280Z,10.16
2022-10-19T00:33:23.359Z,10.15
2022-10-19T00:38:26.566Z,10.12
2022-10-19T00:43:31.700Z,10.14
2022-10-19T00:48:34.469Z,10.15
2022-10-19T00:53:37.495Z,10.17
2022-10-19T00:58:42.596Z,10.17
2022-10-19T01:03:46.020Z,10.12
2022-10-19T01:08:48.712Z,10.09
2022-10-19T01:13:57.461Z,10.09
2022-10-19T01:19:28.376Z,10.11
2022-10-19T01:24:40.812Z,10.06
2022-10-19T01:30:01.457Z,10.00
2022-10-19T01:35:24.705Z,9.95
2022-10-19T01:40:50.573Z,9.93
2022-10-19T01:46:27.334Z,9.90
2022-10-19T01:51:35.155Z,9.86
2022-10-19T01:56:40.023Z,9.85
2022-10-19T02:01:46.596Z,9.88
2022-10-19T02:06:54.278Z,9.93
2022-10-19T02:12:00.881Z,9.99
2022-10-19T02:17:10.337Z,10.04
2022-10-19T02:22:13.347Z,10.08
2022-10-19T02:27:17.307Z,10.12
2022-10-19T02:32:20.250Z,10.09
2022-10-19T02:37:25.563Z,10.05
2022-10-19T02:42:43.597Z,10.02
2022-10-19T02:47:54.079Z,10.01
2022-10-19T02:52:59.186Z,10.05
2022-10-19T02:58:01.883Z,10.08
2022-10-19T03:03:04.528Z,10.11
2022-10-19T03:08:07.404Z,10.13
2022-10-19T03:13:10.122Z,10.07
2022-10-19T03:18:12.841Z,10.00
2022-10-19T03:23:15.510Z,9.94
2022-10-19T03:28:18.173Z,9.89
2022-10-19T03:33:20.915Z,9.85
2022-10-19T03:38:23.610Z,9.93
2022-10-19T03:43:28.574Z,10.15
2022-10-19T03:48:31.321Z,10.36
2022-10-19T03:53:34.591Z,10.51
2022-10-19T03:58:39.080Z,10.63
2022-10-19T04:03:42.095Z,10.70
2022-10-19T04:08:48.182Z,10.73
2022-10-19T04:13:52.646Z,10.81
2022-10-19T04:18:56.374Z,10.78
2022-10-19T04:24:02.423Z,10.72
2022-10-19T04:29:05.297Z,10.75
2022-10-19T04:34:08.547Z,10.83
2022-10-19T04:39:11.565Z,10.83
2022-10-19T04:44:14.361Z,10.79
2022-10-19T04:49:19.485Z,10.77
2022-10-19T04:54:23.110Z,10.84
2022-10-19T04:59:25.769Z,10.98
2022-10-19T05:04:28.431Z,11.06
2022-10-19T05:09:31.086Z,11.11
2022-10-19T05:14:36.740Z,11.13
2022-10-19T05:19:42.387Z,11.15
2022-10-19T05:24:45.043Z,11.13
2022-10-19T05:29:48.493Z,11.14
2022-10-19T05:34:51.173Z,11.13
2022-10-19T05:39:55.150Z,11.18
2022-10-19T05:44:57.896Z,11.20
2022-10-19T05:50:00.552Z,11.20
2022-10-19T05:55:04.307Z,11.22
2022-10-19T06:00:10.438Z,11.35
2022-10-19T06:05:13.183Z,11.38
2022-10-19T06:10:16.039Z,11.41
2022-10-19T06:15:18.730Z,11.59
2022-10-19T06:20:21.487Z,11.67
2022-10-19T06:25:24.266Z,11.68
2022-10-19T06:30:27.335Z,11.72
2022-10-19T06:35:30.084Z,11.85
2022-10-19T06:40:33.135Z,11.96
2022-10-19T06:45:38.253Z,12.23
2022-10-19T06:50:40.937Z,12.48
2022-10-19T06:55:43.651Z,12.53
2022-10-19T07:00:46.488Z,12.54
2022-10-19T07:06:05.539Z,12.44
2022-10-19T07:11:16.306Z,12.17
2022-10-19T07:16:22.213Z,11.96
2022-10-19T07:21:25.056Z,12.02
2022-10-19T07:26:30.697Z,12.16
2022-10-19T07:31:33.694Z,12.36
2022-10-19T07:36:37.220Z,12.56
2022-10-19T07:41:40.413Z,12.62
2022-10-19T07:46:43.458Z,12.86
2022-10-19T07:52:06.899Z,13.80
2022-10-19T07:57:12.676Z,13.75
2022-10-19T08:02:17.158Z,14.15
2022-10-19T08:07:21.645Z,14.82
2022-10-19T08:12:24.546Z,14.89
2022-10-19T08:17:27.483Z,14.91
2022-10-19T08:22:31.669Z,14.82
2022-10-19T08:32:39.982Z,14.24
2022-10-19T08:37:45.749Z,14.25
2022-10-19T08:43:01.487Z,14.26
2022-10-19T08:48:27.095Z,14.29
2022-10-19T08:53:37.666Z,14.09
2022-10-19T08:58:51.925Z,13.71
2022-10-19T09:04:22.045Z,13.44
2022-10-19T09:09:30.230Z,13.16
2022-10-19T09:14:40.949Z,13.37
2022-10-19T09:19:43.721Z,13.56
2022-10-19T09:24:52.801Z,13.55
2022-10-19T09:29:58.494Z,13.43
2022-10-19T09:35:21.650Z,13.31
2022-10-19T09:40:28.452Z,13.44
2022-10-19T09:45:43.517Z,13.61
2022-10-19T09:50:55.633Z,13.73
2022-10-19T09:56:01.998Z,13.48
2022-10-19T10:01:04.903Z,13.23
2022-10-19T10:06:15.460Z,13.28
2022-10-19T10:11:28.125Z,13.28
2022-10-19T10:16:33.462Z,12.93
2022-10-19T10:21:47.791Z,12.80
2022-10-19T10:26:59.175Z,12.70
2022-10-19T10:32:20.631Z,12.75
2022-10-19T10:37:38.323Z,13.14
2022-10-19T10:42:45.140Z,13.23
2022-10-19T10:47:48.785Z,12.70
2022-10-19T10:53:02.349Z,12.08
2022-10-19T10:58:11.999Z,11.85
2022-10-19T11:03:25.225Z,11.91
2022-10-19T11:08:49.877Z,11.99
2022-10-19T11:13:59.350Z,11.99
2022-10-19T11:19:37.218Z,11.67
2022-10-19T11:25:26.163Z,11.59
2022-10-19T11:30:37.869Z,11.48
2022-10-19T11:35:59.172Z,11.43
2022-10-19T11:41:37.419Z,11.55
2022-10-19T11:47:16.742Z,11.58
2022-10-19T11:52:50.134Z,11.85
2022-10-19T11:58:03.069Z,12.19
2022-10-19T12:03:27.611Z,12.08
2022-10-19T12:08:56.686Z,11.64
2022-10-19T12:14:20.646Z,11.34
2022-10-19T12:19:29.138Z,11.11
2022-10-19T12:24:38.209Z,11.08
2022-10-19T12:29:45.696Z,10.99
2022-10-19T12:35:07.078Z,11.00
2022-10-19T12:40:23.463Z,11.26
2022-10-19T12:45:35.753Z,11.59
2022-10-19T12:50:51.539Z,11.73
2022-10-19T12:56:05.149Z,11.58
2022-10-19T13:01:21.132Z,11.27
2022-10-19T13:06:23.822Z,11.14
2022-10-19T13:11:26.789Z,10.85
2022-10-19T13:16:43.339Z,10.79
2022-10-19T13:21:54.305Z,10.77
2022-10-19T13:27:05.311Z,10.73
2022-10-19T13:32:40.414Z,10.66
2022-10-19T13:37:44.809Z,10.62
2022-10-19T13:42:58.768Z,10.53
2022-10-19T13:48:10.371Z,10.53
2022-10-19T13:53:38.452Z,10.52
2022-10-19T13:59:10.423Z,10.52
2022-10-19T14:04:26.069Z,10.27
2022-10-19T14:09:40.797Z,10.13
2022-10-19T14:14:44.598Z,10.02
2022-10-19T14:19:54.461Z,9.83
2022-10-19T14:25:15.007Z,9.62
2022-10-19T14:30:31.994Z,9.48
2022-10-19T14:35:37.802Z,9.36
2022-10-19T14:40:42.622Z,9.24
2022-10-19T14:45:45.613Z,9.19
2022-10-19T14:50:56.701Z,9.12
2022-10-19T14:56:23.202Z,8.96
2022-10-19T15:01:26.307Z,8.80
2022-10-19T15:06:35.875Z,8.70
2022-10-19T15:11:45.514Z,8.60
2022-10-19T15:16:54.559Z,8.46
2022-10-19T15:22:13.025Z,8.33
2022-10-19T15:27:21.607Z,8.21
2022-10-19T15:32:30.261Z,8.13
2022-10-19T15:37:33.093Z,8.10
2022-10-19T15:42:39.156Z,8.06
2022-10-19T15:48:10.889Z,8.04
2022-10-19T15:53:14.077Z,7.98
2022-10-19T15:58:18.488Z,7.86
2022-10-19T16:03:21.206Z,7.77
2022-10-19T16:08:24.029Z,7.72
2022-10-19T16:13:26.797Z,7.70
2022-10-19T16:18:29.508Z,7.71
2022-10-19T16:23:37.826Z,7.69
2022-10-19T16:28:44.604Z,7.62
2022-10-19T16:33:47.530Z,7.53
2022-10-19T16:38:50.357Z,7.46
2022-10-19T16:43:55.478Z,7.44
2022-10-19T16:48:58.355Z,7.47
2022-10-19T16:54:01.149Z,7.46
2022-10-19T16:59:06.263Z,7.47
2022-10-19T17:04:09.247Z,7.49
2022-10-19T17:14:35.839Z,7.54
2022-10-19T17:19:39.139Z,7.60
2022-10-19T17:24:41.887Z,7.65
2022-10-19T17:29:44.601Z,7.69
2022-10-19T17:34:47.493Z,7.74
2022-10-19T17:39:51.417Z,7.79
2022-10-19T17:44:56.093Z,7.75
2022-10-19T17:49:59.164Z,7.71
2022-10-19T17:55:17.511Z,7.62
2022-10-19T18:00:20.577Z,7.52
2022-10-19T18:05:23.320Z,7.46
2022-10-19T18:10:27.098Z,7.44
2022-10-19T18:15:30.007Z,7.42
2022-10-19T18:20:32.723Z,7.39
2022-10-19T18:25:53.508Z,7.34
2022-10-19T18:31:05.237Z,7.36
2022-10-19T18:36:10.809Z,7.45
2022-10-19T18:46:24.034Z,7.53
2022-10-19T18:51:28.424Z,7.61
2022-10-19T18:56:34.275Z,7.64
2022-10-19T19:01:37.066Z,7.60
2022-10-19T19:06:40.122Z,7.57
2022-10-19T19:11:42.927Z,7.53
2022-10-19T19:16:46.297Z,7.45
2022-10-19T19:21:50.426Z,7.38
2022-10-19T19:26:55.098Z,7.39
2022-10-19T19:31:57.852Z,7.35
2022-10-19T19:37:00.739Z,7.26
2022-10-19T19:42:03.937Z,7.21
2022-10-19T19:47:08.340Z,7.17
2022-10-19T19:52:11.148Z,7.12
2022-10-19T19:57:13.994Z,7.03
2022-10-19T20:02:16.770Z,6.96
2022-10-19T20:07:19.480Z,6.89
2022-10-19T20:12:22.192Z,6.87
2022-10-19T20:17:26.010Z,6.83
2022-10-19T20:22:28.793Z,6.80
2022-10-19T20:27:35.507Z,6.83
2022-10-19T20:32:38.819Z,6.87
2022-10-19T20:37:41.725Z,6.90
2022-10-19T20:42:44.579Z,6.97
2022-10-19T20:47:47.245Z,7.02
2022-10-19T20:52:49.930Z,6.95
2022-10-19T20:57:52.639Z,6.89
2022-10-19T21:02:55.347Z,6.90
2022-10-19T21:07:58.180Z,6.91
2022-10-19T21:13:00.892Z,6.89
2022-10-19T21:18:03.717Z,6.87
2022-10-19T21:23:06.442Z,6.86
2022-10-19T21:28:09.169Z,6.87
2022-10-19T21:33:11.882Z,6.88
2022-10-19T21:38:14.549Z,6.87
2022-10-19T21:43:17.339Z,6.88
2022-10-19T21:48:24.549Z,6.90
2022-10-19T21:53:39.128Z,6.90
2022-10-19T21:58:50.668Z,6.94
2022-10-19T22:04:02.457Z,7.03
2022-10-19T22:09:07.476Z,7.12
2022-10-19T22:14:14.301Z,7.18
2022-10-19T22:19:17.074Z,7.19
2022-10-19T22:24:19.704Z,7.16
2022-10-19T22:29:22.444Z,7.14
2022-10-19T22:34:25.149Z,7.14
2022-10-19T22:39:30.221Z,7.13
2022-10-19T22:44:33.111Z,7.14
2022-10-19T22:49:35.787Z,7.12
2022-10-19T22:54:38.459Z,7.10
2022-10-19T22:59:41.983Z,7.12
2022-10-19T23:04:44.671Z,7.14
2022-10-19T23:09:47.346Z,7.15
2022-10-19T23:14:50.014Z,7.16
2022-10-19T23:19:52.703Z,7.14
2022-10-19T23:24:55.339Z,7.09
2022-10-19T23:29:57.959Z,7.05
2022-10-19T23:35:00.634Z,7.01
2022-10-19T23:40:04.023Z,6.96
2022-10-19T23:45:07.452Z,6.90
2022-10-19T23:50:10.661Z,6.84
2022-10-19T23:55:13.348Z,6.85
